Aviation Digital Data Service (ADDS)

Output produced by METARs form (0727 UTC 24 March 2019)
found at http://www.aviationweather.gov/metar/data/
 
OPLA 240655Z 29009KT 5000 HZ FEW040 BKN100 23/12 Q1016 NOSIG RMK QFE990 RMK A29.99
TAF OPLA 240345Z 2406/2512 32008KT 6000 FEW040 SCT100 TX28/2510Z TN15/2501Z FM
24,1500 30005KT 4000 FU SCT100 FM 25,0600 33008KT 6000 FEW040 SCT100
       
TAF OPBW 240400Z 2406/2424 36010KT 3000 FU SCT040 SCT120 TX28/2410Z 
     PROB30 
     TEMPO 2406/2409 36015KT 1000 -RA SCT040 SCT100
       
TAF OPDG 240400Z 2406/2424 36010KT 5000 FU SCT040 SCT120 TX26/2410Z 
     PROB30 
     TEMPO 2406/2409 36015KT 2000 -TSRA FEW030CB SCT040 BKN100
       
TAF OPGD 240400Z 2406/2506 26010KT 6000 SCT025 BKN100 
     TEMPO 2406/2412 02012G22KT 1500 -TSRA FEW025CB BKN030 OVC090 
     BECMG 2418/2420 34007KT 4000 HZ NSC 
     TEMPO 2500/2506 VRB03KT 2000 BR NSC
       
OPKC 240700Z 00000KT 7000 NSC 31/12 Q1015 NOSIG
TAF OPKC 240630Z 2409/2418 26008G18KT 6000 SCT030 BKN100
       
OPMT 240652Z 00000KT 5000 FU SCT040 OVC100 21/16 Q1016 NOSIG
TAF OPMT 240400Z 2406/2424 36010KT 4000 FU SCT040 SCT120 TX27/2410Z 
     PROB30 
     TEMPO 2406/2409 36015KT 2000 DZ SCT040 SCT100
       
OPNH 240700Z 31506KT 5000M HZ SCT035 BKN100 26/16 Q1015 NOSIG
TAF OPNH 240630Z 2409/2418 33010KT 5000 HZ SCT030 BKN100
       
TAF OPRK 240400Z 2406/2424 05010KT 4000 FU SCT040 SCT120 TX30/2410Z 
     PROB30 
     TEMPO 2406/2409 36020KT 2000 -TSRA FEW030CB SCT040 BKN100
       
OPSK 240700Z 05008KT 5000 HZ FEW040 BKN100 26/14 Q1014 NOSIG
TAF OPSK 240400Z 2406/2506 04010G20KT 4000 HZ SCT040 BKN100 
     PROB30 
     TEMPO 2415/2421 04012G25KT 2000 -TSRA FEW025CB BKN040 OVC100 
     TEMPO 2500/2506 04007KT 1500 FU NSC